East Flat Rock, NC (28726)

14:00 EDT je la 24an de oktobro 2014 (GMT -0400)
Ridgeview | Change Station
CLOSE
Current Station
Personaj Veter-Stacioj
Location: Flat Rock, NC
Alteco: 2425 ft
Najbaraj veter-stacioj

Elev 2425 ft 35.26 °N, 82.45 °W | Updated 17 seconds ago

Parte nuba
Parte nuba
64.4 °F
Sentas kiel 64.4 °F
N
0.0
Vento Varianta Vento from SOr
Gusts 1.0 mej/h

hodiaŭ
High -- | Low -- °F
--% Ebla precip.
hieraŭ
High -- | Low -- °F
Precip. -- co
7:43 AM 6:43 PM
Novlumo, 1% visible
Aerpremo 30.01 co
Vidodistanco 10.0 mejloj
Nuboj Sennuba
Rosopunkto 40 °F
Humido 41%
Pluvokvanto 0.00 co
Neĝprofundo Not available.
UV 6 out of 12
Pollen 2.30 out of 12
Ozone Good
PM2.5 Good
Flu Activity Sporadic
METAR KAVL 241754Z 26003KT 10SM CLR 18/03 A3005 RMK AO2 SLP162 T01830033 10183 20039 58021

More Conditions Fewer Conditions

Aerpremo 30.01 co
Vidodistanco 10.0 mejloj
Nuboj Sennuba
Rosopunkto 40 °F
Humido 41%
Pluvokvanto 0.00 co
Neĝprofundo Not available.
UV 6 out of 12
Pollen 2.30 out of 12
Ozone Good
PM2.5 Good
Flu Activity Sporadic
METAR KAVL 241754Z 26003KT 10SM CLR 18/03 A3005 RMK AO2 SLP162 T01830033 10183 20039 58021

More Conditions Fewer Conditions

10-Day Weather Forecast

Almanac

Astronomio

Oct. 24, 2014 Leviĝo Subiro
Aktuala tempo 07:43 EDT 18:43 EDT
Civila krepusko 07:17 EDT 19:09 EDT
Naŭtika krepusko 06:48 EDT 19:39 EDT
Astronomia krepusko 06:18 EDT 20:08 EDT
Luno 08:20 EDT 19:24 EDT
Daŭro de videbla lumo 11h 51m
Daŭro de tago
10h 59m
Tomorrow will be 2m 2s shorter.
Novlumo, 1% of the Moon is Illuminated
hodiaŭ
Novlumo
Oct 30
Unua kvaronluno
Nov 6
Plenlumo
Nov 14
Lasta kvaronluno
Nov 22
Nova

Hodiaŭaj ekstremaĵoj

State Highs State Lows

Community

WunderPhotos

Upload Photos

1,764,628 photos uploaded!

WunderBlogs® & News

Nearby

Aerkvalito

  Aerkvalito Aerkvalita indico Poluanto
hieraŭ Good
PM2.5
hieraŭ Good
OZONE
nuna Good
PM2.5
nuna Good
OZONE
vendredo Good
PM2.5
vendredo Good
OZONE
sabato Good
PM2.5
sabato Good
OZONE
dimanĉo Good
PM2.5
dimanĉo Good
OZONE
lundo Good
PM2.5
lundo Good
OZONE

Neĝa profundeco

Station Depth Alteco
No new snow has been reported.

Earthquake Activity

Urbo Distance Mag. Time & Date
No recent earthquake activity has been reported nearby.
Minimum magnitude displayed is 2.5.

Coastal Water Temperatures

Loko Temperaturo
No Stations Reporting

Najbaraj veter-stacioj